createdAt,value
2022-10-28T00:00:26.965Z,38.79
2022-10-28T00:03:12.806Z,38.63
2022-10-28T00:06:06.817Z,38.77
2022-10-28T00:08:52.592Z,38.97
2022-10-28T00:11:38.586Z,38.72
2022-10-28T00:14:24.292Z,38.83
2022-10-28T00:17:10.119Z,38.88
2022-10-28T00:19:55.812Z,38.89
2022-10-28T00:22:42.130Z,38.92
2022-10-28T00:25:27.866Z,38.83
2022-10-28T00:28:13.507Z,38.96
2022-10-28T00:31:05.592Z,38.92
2022-10-28T00:33:51.998Z,39.21
2022-10-28T00:36:41.317Z,39.02
2022-10-28T00:39:27.654Z,38.98
2022-10-28T00:42:13.609Z,39.15
2022-10-28T00:45:01.654Z,39.06
2022-10-28T00:47:59.989Z,39.12
2022-10-28T00:50:51.911Z,39.23
2022-10-28T00:53:39.066Z,39.13
2022-10-28T00:59:39.810Z,39.24
2022-10-28T01:02:26.341Z,39.23
2022-10-28T01:05:15.235Z,39.23
2022-10-28T01:08:02.355Z,39.25
2022-10-28T01:11:06.261Z,39.30
2022-10-28T01:14:21.350Z,39.45
2022-10-28T01:17:28.365Z,39.31
2022-10-28T01:20:29.359Z,39.36
2022-10-28T01:23:42.997Z,39.55
2022-10-28T01:27:02.710Z,39.50
2022-10-28T01:30:06.873Z,39.62
2022-10-28T01:33:05.148Z,39.51
2022-10-28T01:35:57.076Z,39.46
2022-10-28T01:38:58.576Z,39.76
2022-10-28T01:41:56.383Z,39.65
2022-10-28T01:44:58.659Z,39.78
2022-10-28T01:48:02.674Z,39.60
2022-10-28T01:50:56.149Z,39.59
2022-10-28T01:53:47.340Z,39.51
2022-10-28T01:56:38.027Z,39.64
2022-10-28T01:59:27.643Z,39.67
2022-10-28T02:02:21.451Z,39.66
2022-10-28T02:05:27.234Z,40.12
2022-10-28T02:08:34.024Z,39.74
2022-10-28T02:11:26.100Z,39.72
2022-10-28T02:14:38.461Z,39.75
2022-10-28T02:17:56.439Z,39.56
2022-10-28T02:20:57.151Z,39.83
2022-10-28T02:24:09.714Z,39.65
2022-10-28T02:27:09.905Z,39.53
2022-10-28T02:30:05.425Z,39.80
2022-10-28T02:33:03.477Z,39.84
2022-10-28T02:36:00.710Z,39.73
2022-10-28T02:38:54.916Z,39.73
2022-10-28T02:41:44.746Z,39.61
2022-10-28T02:44:35.284Z,39.68
2022-10-28T02:47:25.548Z,39.87
2022-10-28T02:50:16.858Z,39.83
2022-10-28T02:53:06.797Z,40.02
2022-10-28T02:55:55.072Z,39.89
2022-10-28T02:58:41.918Z,39.98
2022-10-28T03:01:31.359Z,39.95
2022-10-28T03:04:18.860Z,39.92
2022-10-28T03:07:05.890Z,40.28
2022-10-28T03:09:53.327Z,40.25
2022-10-28T03:12:40.463Z,40.22
2022-10-28T03:15:27.766Z,40.01
2022-10-28T03:18:14.934Z,40.17
2022-10-28T03:21:02.144Z,40.13
2022-10-28T03:23:49.197Z,40.32
2022-10-28T03:26:35.659Z,40.31
2022-10-28T03:29:22.981Z,40.25
2022-10-28T03:32:10.308Z,40.10
2022-10-28T03:34:57.429Z,40.34
2022-10-28T03:37:45.121Z,40.36
2022-10-28T03:40:32.537Z,40.48
2022-10-28T03:43:19.857Z,40.40
2022-10-28T03:46:06.794Z,40.34
2022-10-28T03:48:54.240Z,40.47
2022-10-28T03:51:41.382Z,40.54
2022-10-28T03:54:28.677Z,40.66
2022-10-28T03:57:15.855Z,40.48
2022-10-28T04:00:03.128Z,40.53
2022-10-28T04:02:58.811Z,40.75
2022-10-28T04:05:46.366Z,40.35
2022-10-28T04:08:33.356Z,40.61
2022-10-28T04:11:20.601Z,40.73
2022-10-28T04:14:07.761Z,40.89
2022-10-28T04:16:54.876Z,40.84
2022-10-28T04:19:42.286Z,40.76
2022-10-28T04:22:29.826Z,40.81
2022-10-28T04:28:06.888Z,40.86
2022-10-28T04:30:52.563Z,40.84
2022-10-28T04:33:38.582Z,40.90
2022-10-28T04:36:24.603Z,40.91
2022-10-28T04:39:10.430Z,40.93
2022-10-28T04:41:56.580Z,40.90
2022-10-28T04:44:42.260Z,40.98
2022-10-28T04:47:28.085Z,41.25
2022-10-28T04:50:14.236Z,41.02
2022-10-28T04:53:00.427Z,40.93
2022-10-28T04:55:46.334Z,41.19
2022-10-28T04:58:32.056Z,41.33
2022-10-28T05:01:17.899Z,40.92
2022-10-28T05:04:04.055Z,41.11
2022-10-28T05:06:50.182Z,41.10
2022-10-28T05:09:36.325Z,40.99
2022-10-28T05:12:22.162Z,41.12
2022-10-28T05:15:08.607Z,41.31
2022-10-28T05:17:55.257Z,41.29
2022-10-28T05:20:42.180Z,41.45
2022-10-28T05:23:30.862Z,41.43
2022-10-28T05:26:17.060Z,41.35
2022-10-28T05:29:03.164Z,41.10
2022-10-28T05:31:49.028Z,41.76
2022-10-28T05:34:35.064Z,41.42
2022-10-28T05:37:21.155Z,41.55
2022-10-28T05:40:08.867Z,41.65
2022-10-28T05:42:54.957Z,41.41
2022-10-28T05:45:41.021Z,41.74
2022-10-28T05:48:26.783Z,41.55
2022-10-28T05:51:12.580Z,41.76
2022-10-28T05:53:58.383Z,41.58
2022-10-28T05:56:44.136Z,41.64
2022-10-28T05:59:30.031Z,41.55
2022-10-28T06:02:15.864Z,41.63
2022-10-28T06:05:01.724Z,41.36
2022-10-28T06:07:47.550Z,41.53
2022-10-28T06:10:33.929Z,41.75
2022-10-28T06:13:18.962Z,41.40
2022-10-28T06:16:05.069Z,41.72
2022-10-28T06:18:50.678Z,41.46
2022-10-28T06:21:36.499Z,41.59
2022-10-28T06:24:22.136Z,41.83
2022-10-28T06:27:07.835Z,41.53
2022-10-28T06:29:53.880Z,41.66
2022-10-28T06:32:39.619Z,41.67
2022-10-28T06:35:25.562Z,41.71
2022-10-28T06:38:11.546Z,41.82
2022-10-28T06:41:00.586Z,41.72
2022-10-28T06:43:46.715Z,41.78
2022-10-28T06:46:34.066Z,41.69
2022-10-28T06:49:20.023Z,41.70
2022-10-28T06:52:05.876Z,41.60
2022-10-28T06:54:51.951Z,41.74
2022-10-28T06:57:37.587Z,41.89
2022-10-28T07:00:23.584Z,41.63
2022-10-28T07:03:10.037Z,41.66
2022-10-28T07:05:55.846Z,41.74
2022-10-28T07:08:41.531Z,41.94
2022-10-28T07:11:27.261Z,41.74
2022-10-28T07:14:13.189Z,41.91
2022-10-28T07:16:58.938Z,41.60
2022-10-28T07:19:44.626Z,41.81
2022-10-28T07:22:30.259Z,41.68
2022-10-28T07:25:16.017Z,41.56
2022-10-28T07:28:02.200Z,41.88
2022-10-28T07:30:48.155Z,41.69
2022-10-28T07:33:33.835Z,41.79
2022-10-28T07:36:19.608Z,41.89
2022-10-28T07:39:05.582Z,41.73
2022-10-28T07:41:51.271Z,41.68
2022-10-28T07:44:36.990Z,41.92
2022-10-28T07:47:22.707Z,42.60
2022-10-28T07:50:09.423Z,42.88
2022-10-28T07:52:55.539Z,43.24
2022-10-28T07:55:41.991Z,43.06
2022-10-28T07:58:28.319Z,43.47
2022-10-28T08:01:17.068Z,43.35
2022-10-28T08:04:05.288Z,43.79
2022-10-28T08:06:51.439Z,43.65
2022-10-28T08:09:37.364Z,43.75
2022-10-28T08:12:23.510Z,43.94
2022-10-28T08:15:10.662Z,43.74
2022-10-28T08:17:57.015Z,44.07
2022-10-28T08:20:43.275Z,43.87
2022-10-28T08:23:29.465Z,44.18
2022-10-28T08:26:16.244Z,43.99
2022-10-28T08:29:02.432Z,44.48
2022-10-28T08:31:48.392Z,44.19
2022-10-28T08:34:35.095Z,44.27
2022-10-28T08:37:23.517Z,44.51
2022-10-28T08:40:11.796Z,44.38
2022-10-28T08:43:07.386Z,44.44
2022-10-28T08:46:23.664Z,44.53
2022-10-28T08:49:12.608Z,44.70
2022-10-28T08:52:15.748Z,44.56
2022-10-28T08:55:07.212Z,44.64
2022-10-28T08:57:54.277Z,44.62
2022-10-28T09:00:47.141Z,44.41
2022-10-28T09:03:39.405Z,44.69
2022-10-28T09:06:25.369Z,44.34
2022-10-28T09:09:20.700Z,44.52
2022-10-28T09:12:23.300Z,44.62
2022-10-28T09:15:27.671Z,44.52
2022-10-28T09:18:22.379Z,44.29
2022-10-28T09:21:22.305Z,44.52
2022-10-28T09:24:26.049Z,44.34
2022-10-28T09:27:18.636Z,44.36
2022-10-28T09:30:20.348Z,44.07
2022-10-28T09:33:30.013Z,44.11
2022-10-28T09:36:24.240Z,44.27
2022-10-28T09:39:14.046Z,44.31
2022-10-28T09:42:01.185Z,43.87
2022-10-28T09:45:05.610Z,43.83
2022-10-28T09:48:03.285Z,43.95
2022-10-28T09:50:52.339Z,43.67
2022-10-28T09:53:43.467Z,43.77
2022-10-28T09:56:30.068Z,43.70
2022-10-28T09:59:16.024Z,43.69
2022-10-28T10:02:03.967Z,43.47
2022-10-28T10:04:49.953Z,43.21
2022-10-28T10:07:38.893Z,43.12
2022-10-28T10:10:44.805Z,42.94
2022-10-28T10:13:36.079Z,42.97
2022-10-28T10:16:37.831Z,42.86
2022-10-28T10:19:23.602Z,42.76
2022-10-28T10:22:09.455Z,42.59
2022-10-28T10:24:55.197Z,42.54
2022-10-28T10:27:41.019Z,42.43
2022-10-28T10:30:30.542Z,42.34
2022-10-28T10:33:20.209Z,41.98
2022-10-28T10:36:11.913Z,41.99
2022-10-28T10:38:59.868Z,41.77
2022-10-28T10:41:47.023Z,41.79
2022-10-28T10:45:01.171Z,41.28
2022-10-28T10:47:47.006Z,41.48
2022-10-28T10:50:33.074Z,41.07
2022-10-28T10:53:20.869Z,40.95
2022-10-28T10:56:11.205Z,41.00
2022-10-28T10:59:01.570Z,40.89
2022-10-28T11:01:48.122Z,40.62
2022-10-28T11:05:13.430Z,40.06
2022-10-28T11:08:04.846Z,40.48
2022-10-28T11:11:14.911Z,40.00
2022-10-28T11:14:13.761Z,39.78
2022-10-28T11:17:01.814Z,39.75
2022-10-28T11:19:47.444Z,39.51
2022-10-28T11:22:51.418Z,38.69
2022-10-28T11:25:39.825Z,38.24
2022-10-28T11:28:54.256Z,37.89
2022-10-28T11:31:48.549Z,37.15
2022-10-28T11:35:48.167Z,35.93
2022-10-28T11:38:59.465Z,34.77
2022-10-28T11:42:15.322Z,33.77
2022-10-28T11:45:23.251Z,33.22
2022-10-28T11:48:14.307Z,32.75
2022-10-28T11:51:15.149Z,31.95
2022-10-28T11:54:04.531Z,31.70
2022-10-28T11:56:54.202Z,30.98
2022-10-28T11:59:54.507Z,30.37
2022-10-28T12:02:59.032Z,30.14
2022-10-28T12:05:51.456Z,29.39
2022-10-28T12:08:58.160Z,28.64
2022-10-28T12:15:40.493Z,27.91
2022-10-28T12:18:50.490Z,28.11
2022-10-28T12:21:36.992Z,28.90
2022-10-28T12:24:24.332Z,28.55
2022-10-28T12:27:44.090Z,27.56
2022-10-28T12:30:32.560Z,28.27
2022-10-28T12:33:29.399Z,27.85
2022-10-28T12:36:19.284Z,28.11
2022-10-28T12:39:25.145Z,26.83
2022-10-28T12:42:35.899Z,27.33
2022-10-28T12:45:22.840Z,27.33
2022-10-28T12:48:34.521Z,26.04
2022-10-28T12:51:40.483Z,26.77
2022-10-28T12:54:38.592Z,26.29
2022-10-28T12:57:25.180Z,26.72
2022-10-28T13:00:24.698Z,26.00
2022-10-28T13:03:14.555Z,26.71
2022-10-28T13:06:45.061Z,25.28
2022-10-28T13:10:06.651Z,24.19
2022-10-28T13:12:40.130Z,25.94
2022-10-28T13:15:09.925Z,25.76
2022-10-28T13:18:25.613Z,24.33
2022-10-28T13:21:25.297Z,24.45
2022-10-28T13:24:26.401Z,25.41
2022-10-28T13:26:54.223Z,25.37
2022-10-28T13:29:27.936Z,24.94
2022-10-28T13:31:55.617Z,25.44
2022-10-28T13:34:33.385Z,24.58
2022-10-28T13:37:03.512Z,24.92
2022-10-28T13:39:43.874Z,24.17
2022-10-28T13:42:13.367Z,24.76
2022-10-28T13:44:56.171Z,24.19
2022-10-28T13:47:33.890Z,24.57
2022-10-28T13:50:10.952Z,24.27
2022-10-28T13:52:45.707Z,24.19
2022-10-28T13:55:26.613Z,24.21
2022-10-28T13:58:32.659Z,24.41
2022-10-28T14:01:45.590Z,23.36
2022-10-28T14:04:45.605Z,24.21
2022-10-28T14:07:21.877Z,24.65
2022-10-28T14:09:52.562Z,24.75
2022-10-28T14:12:31.047Z,24.61
2022-10-28T14:15:15.978Z,25.00
2022-10-28T14:18:10.590Z,24.93
2022-10-28T14:20:51.677Z,25.18
2022-10-28T14:23:22.054Z,25.41
2022-10-28T14:25:53.659Z,25.68
2022-10-28T14:28:27.231Z,25.81
2022-10-28T14:31:12.479Z,26.05
2022-10-28T14:33:43.355Z,26.00
2022-10-28T14:36:22.535Z,26.30
2022-10-28T14:38:53.200Z,26.52
2022-10-28T14:41:39.184Z,26.65
2022-10-28T14:44:39.649Z,27.08
2022-10-28T14:47:44.028Z,27.05
2022-10-28T14:50:23.781Z,27.27
2022-10-28T14:52:52.649Z,27.04
2022-10-28T14:55:32.799Z,27.49
2022-10-28T14:58:36.971Z,27.67
2022-10-28T15:01:18.712Z,27.56
2022-10-28T15:03:58.528Z,27.82
2022-10-28T15:06:41.824Z,28.07
2022-10-28T15:09:28.932Z,28.15
2022-10-28T15:11:59.872Z,28.18
2022-10-28T15:14:40.284Z,28.36
2022-10-28T15:17:31.152Z,28.58
2022-10-28T15:20:33.415Z,28.61
2022-10-28T15:23:19.493Z,28.72
2022-10-28T15:26:11.640Z,28.96
2022-10-28T15:28:40.280Z,28.74
2022-10-28T15:31:08.050Z,29.05
2022-10-28T15:33:40.621Z,29.15
2022-10-28T15:36:23.199Z,29.31
2022-10-28T15:38:52.103Z,29.35
2022-10-28T15:41:24.004Z,29.49
2022-10-28T15:44:02.081Z,29.49
2022-10-28T15:46:31.510Z,29.58
2022-10-28T15:49:05.795Z,29.86
2022-10-28T15:51:33.453Z,29.82
2022-10-28T15:54:18.896Z,30.12
2022-10-28T15:56:55.716Z,29.89
2022-10-28T15:59:25.812Z,30.06
2022-10-28T16:01:58.682Z,30.28
2022-10-28T16:04:26.252Z,30.25
2022-10-28T16:06:57.557Z,30.40
2022-10-28T16:09:48.299Z,30.81
2022-10-28T16:12:18.943Z,30.49
2022-10-28T16:14:53.536Z,30.72
2022-10-28T16:17:29.754Z,30.63
2022-10-28T16:19:58.009Z,30.63
2022-10-28T16:22:27.831Z,30.77
2022-10-28T16:24:55.746Z,30.93
2022-10-28T16:27:30.517Z,31.04
2022-10-28T16:29:58.480Z,31.27
2022-10-28T16:32:29.531Z,31.20
2022-10-28T16:34:58.927Z,31.26
2022-10-28T16:37:29.303Z,31.39
2022-10-28T16:39:57.895Z,31.39
2022-10-28T16:42:25.743Z,31.58
2022-10-28T16:44:53.393Z,31.55
2022-10-28T16:47:23.054Z,31.73
2022-10-28T16:49:54.286Z,31.85
2022-10-28T16:52:29.250Z,32.02
2022-10-28T16:55:00.957Z,31.99
2022-10-28T16:57:28.531Z,32.17
2022-10-28T16:59:56.205Z,32.12
2022-10-28T17:02:31.709Z,32.27
2022-10-28T17:04:59.918Z,32.38
2022-10-28T17:07:28.373Z,32.27
2022-10-28T17:09:57.012Z,32.40
2022-10-28T17:12:26.312Z,32.52
2022-10-28T17:14:55.388Z,32.66
2022-10-28T17:17:22.832Z,32.75
2022-10-28T17:19:50.497Z,32.72
2022-10-28T17:22:17.992Z,32.68
2022-10-28T17:24:46.192Z,32.86
2022-10-28T17:27:13.842Z,32.99
2022-10-28T17:29:41.633Z,32.95
2022-10-28T17:32:09.284Z,33.05
2022-10-28T17:34:37.254Z,33.12
2022-10-28T17:37:05.197Z,33.22
2022-10-28T17:39:32.804Z,33.38
2022-10-28T17:42:22.356Z,33.43
2022-10-28T17:44:49.833Z,33.50
2022-10-28T17:47:17.506Z,33.56
2022-10-28T17:49:45.245Z,33.52
2022-10-28T17:52:13.426Z,33.85
2022-10-28T17:54:41.029Z,33.81
2022-10-28T17:57:09.651Z,33.69
2022-10-28T17:59:37.342Z,34.01
2022-10-28T18:02:05.297Z,34.19
2022-10-28T18:04:35.058Z,34.20
2022-10-28T18:07:02.586Z,33.96
2022-10-28T18:09:31.821Z,34.17
2022-10-28T18:12:02.061Z,34.18
2022-10-28T18:14:29.934Z,34.28
2022-10-28T18:16:57.520Z,34.36
2022-10-28T18:19:25.414Z,34.61
2022-10-28T18:21:52.911Z,34.61
2022-10-28T18:24:23.372Z,34.48
2022-10-28T18:26:54.940Z,34.73
2022-10-28T18:29:22.538Z,34.45
2022-10-28T18:31:50.046Z,34.62
2022-10-28T18:34:17.855Z,34.73
2022-10-28T18:36:45.417Z,34.89
2022-10-28T18:39:14.055Z,34.79
2022-10-28T18:41:42.929Z,34.78
2022-10-28T18:44:13.155Z,34.99
2022-10-28T18:46:41.225Z,35.15
2022-10-28T18:49:08.931Z,35.01
2022-10-28T18:51:36.613Z,35.00
2022-10-28T18:54:04.515Z,35.24
2022-10-28T18:56:34.208Z,35.37
2022-10-28T18:59:03.448Z,35.49
2022-10-28T19:01:32.212Z,35.53
2022-10-28T19:04:02.235Z,35.32
2022-10-28T19:06:34.990Z,35.41
2022-10-28T19:09:04.868Z,35.67
2022-10-28T19:11:33.664Z,35.50
2022-10-28T19:14:03.771Z,35.52
2022-10-28T19:16:33.806Z,35.60
2022-10-28T19:19:02.961Z,35.72
2022-10-28T19:21:31.106Z,35.92
2022-10-28T19:23:58.700Z,35.96
2022-10-28T19:26:27.914Z,35.66
2022-10-28T19:28:55.414Z,35.98
2022-10-28T19:31:25.912Z,35.82
2022-10-28T19:33:54.271Z,35.86
2022-10-28T19:36:24.288Z,36.08
2022-10-28T19:38:55.696Z,35.96
2022-10-28T19:41:28.081Z,36.01
2022-10-28T19:43:58.469Z,36.35
2022-10-28T19:46:29.431Z,36.45
2022-10-28T19:48:58.711Z,36.36
2022-10-28T19:51:31.446Z,36.53
2022-10-28T19:54:00.626Z,36.45
2022-10-28T19:56:30.064Z,36.46
2022-10-28T19:58:59.607Z,36.41
2022-10-28T20:01:29.704Z,36.67
2022-10-28T20:03:57.789Z,36.35
2022-10-28T20:06:27.445Z,36.79
2022-10-28T20:08:59.160Z,36.59
2022-10-28T20:11:29.113Z,36.49
2022-10-28T20:14:01.248Z,37.02
2022-10-28T20:16:29.332Z,36.84
2022-10-28T20:18:58.186Z,36.83
2022-10-28T20:21:28.528Z,36.74
2022-10-28T20:23:57.195Z,36.88
2022-10-28T20:26:29.551Z,37.11
2022-10-28T20:28:58.178Z,36.87
2022-10-28T20:31:27.824Z,37.26
2022-10-28T20:34:00.703Z,37.03
2022-10-28T20:36:30.293Z,36.96
2022-10-28T20:39:00.961Z,36.90
2022-10-28T20:41:33.225Z,37.39
2022-10-28T20:44:01.642Z,37.48
2022-10-28T20:46:31.675Z,37.24
2022-10-28T20:49:00.846Z,37.42
2022-10-28T20:51:30.379Z,37.45
2022-10-28T20:53:59.598Z,37.60
2022-10-28T20:56:33.021Z,37.18
2022-10-28T20:59:00.722Z,37.40
2022-10-28T21:01:33.038Z,37.66
2022-10-28T21:04:02.914Z,37.56
2022-10-28T21:06:31.079Z,37.42
2022-10-28T21:08:59.722Z,37.55
2022-10-28T21:11:27.962Z,37.50
2022-10-28T21:13:57.734Z,37.50
2022-10-28T21:16:26.347Z,37.86
2022-10-28T21:18:54.530Z,37.74
2022-10-28T21:21:23.127Z,37.63
2022-10-28T21:23:51.999Z,37.55
2022-10-28T21:26:19.757Z,37.95
2022-10-28T21:28:52.084Z,37.81
2022-10-28T21:31:20.921Z,37.65
2022-10-28T21:36:22.182Z,38.01
2022-10-28T21:38:53.606Z,38.11
2022-10-28T21:41:21.383Z,37.91
2022-10-28T21:43:50.520Z,38.13
2022-10-28T21:46:19.004Z,38.00
2022-10-28T21:48:47.014Z,37.98
2022-10-28T21:51:16.145Z,38.23
2022-10-28T21:53:44.564Z,38.13
2022-10-28T21:56:17.533Z,38.44
2022-10-28T21:58:47.718Z,38.15
2022-10-28T22:01:20.853Z,38.21
2022-10-28T22:03:51.084Z,38.31
2022-10-28T22:06:18.738Z,38.28
2022-10-28T22:08:46.925Z,38.28
2022-10-28T22:11:20.410Z,38.73
2022-10-28T22:13:48.420Z,39.56
2022-10-28T22:16:17.840Z,38.54
2022-10-28T22:18:45.612Z,38.29
2022-10-28T22:21:15.529Z,38.71
2022-10-28T22:23:43.349Z,38.55
2022-10-28T22:26:13.274Z,38.71
2022-10-28T22:28:40.793Z,38.79
2022-10-28T22:31:13.751Z,38.95
2022-10-28T22:33:41.540Z,38.88
2022-10-28T22:36:12.220Z,39.00
2022-10-28T22:38:39.921Z,38.73
2022-10-28T22:41:08.253Z,38.74
2022-10-28T22:43:35.821Z,38.85
2022-10-28T22:46:04.190Z,39.10
2022-10-28T22:48:32.271Z,39.02
2022-10-28T22:51:00.386Z,38.99
2022-10-28T22:53:28.031Z,39.30
2022-10-28T22:55:56.222Z,39.31
2022-10-28T22:58:24.739Z,39.42
2022-10-28T23:00:52.340Z,39.54
2022-10-28T23:03:19.838Z,39.40
2022-10-28T23:05:47.275Z,39.59
2022-10-28T23:08:15.883Z,39.38
2022-10-28T23:10:43.350Z,39.49
2022-10-28T23:13:12.301Z,39.68
2022-10-28T23:15:39.829Z,39.52
2022-10-28T23:18:07.517Z,39.55
2022-10-28T23:20:35.447Z,39.61
2022-10-28T23:23:03.266Z,39.66
2022-10-28T23:25:30.790Z,39.77
2022-10-28T23:27:59.466Z,39.64
2022-10-28T23:30:26.908Z,39.69
2022-10-28T23:32:57.318Z,39.77
2022-10-28T23:35:25.248Z,39.84
2022-10-28T23:37:54.050Z,40.07
2022-10-28T23:40:21.787Z,40.15
2022-10-28T23:42:49.338Z,40.13
2022-10-28T23:45:16.889Z,40.26
2022-10-28T23:47:44.505Z,40.18
2022-10-28T23:50:14.879Z,40.19
2022-10-28T23:52:42.510Z,40.31
2022-10-28T23:55:10.252Z,40.21
2022-10-28T23:57:41.209Z,40.38
